KEAT/EAT METAR and TAF weather

Enter ICAO airport designator
Station Type Date Time Source
KEAT METAR 2020/01/20 16:11 UTC NOAA

KEAT 201611Z AUTO 36005KT 3SM BR FEW001 BKN110 M01/M02 A3010 RMK AO2 T10111022 $


Station Type Date Time Source
KEAT Decoded METAR 2020/01/20 16:11 UTC NOAA

WENATCHEE PANGBORN MEMO, WA, United States (KEAT) 47-24N 120-12W 377M
Jan 20, 2020 - 11:11 AM EST / 2020.01.20 1611 UTC
Wind: from the N (360 degrees) at 6 MPH (5 KT):0
Visibility: 3 mile(s):0
Sky conditions: mostly cloudy
Weather: mist
Temperature: 30.0 F (-1.1 C)
Windchill: 23 F (-5 C):1
Dew Point: 28.0 F (-2.2 C)
Relative Humidity: 92%
Pressure (altimeter): 30.1 in. Hg (1019 hPa)
ob: KEAT 201611Z AUTO 36005KT 3SM BR FEW001 BKN110 M01/M02 A3010 RMK AO2 T10111022
cycle: 16

Station Type Date Time Source
KEAT TAF 2020/01/20 16:15 UTC NOAA

TAF
AMD KEAT 201612Z 2016/2112 30008KT 6SM BR SCT002 OVC110
TEMPO 2016/2018 1/2SM FZFG BKN002 OVC110
FM201800 VRB03KT P6SM OVC030

Example: see airport list